createdAt,value
2018-03-06T00:00:53.277Z,3.40
2018-03-06T00:03:20.836Z,3.30
2018-03-06T00:05:49.150Z,3.20
2018-03-06T00:08:16.679Z,3.20
2018-03-06T00:10:44.980Z,3.20
2018-03-06T00:13:12.549Z,3.20
2018-03-06T00:15:40.103Z,3.20
2018-03-06T00:18:07.695Z,3.30
2018-03-06T00:20:35.965Z,3.30
2018-03-06T00:23:03.507Z,3.20
2018-03-06T00:25:31.834Z,3.30
2018-03-06T00:27:59.377Z,3.30
2018-03-06T00:30:26.916Z,3.40
2018-03-06T00:32:55.220Z,3.60
2018-03-06T00:35:22.767Z,3.60
2018-03-06T00:37:51.112Z,3.80
2018-03-06T00:40:18.645Z,3.70
2018-03-06T00:42:46.198Z,3.80
2018-03-06T00:45:13.759Z,3.80
2018-03-06T00:47:41.260Z,3.80
2018-03-06T00:50:08.829Z,3.80
2018-03-06T00:52:36.373Z,3.90
2018-03-06T00:55:03.975Z,3.80
2018-03-06T00:57:31.516Z,3.80
2018-03-06T00:59:59.066Z,3.70
2018-03-06T01:02:26.664Z,3.70
2018-03-06T01:04:54.227Z,3.60
2018-03-06T01:07:21.746Z,3.50
2018-03-06T01:09:49.300Z,3.40
2018-03-06T01:12:17.620Z,3.30
2018-03-06T01:14:45.589Z,3.30
2018-03-06T01:17:13.146Z,3.20
2018-03-06T01:19:40.714Z,3.10
2018-03-06T01:22:08.273Z,3.10
2018-03-06T01:24:35.807Z,3.00
2018-03-06T01:27:03.381Z,3.10
2018-03-06T01:29:31.692Z,3.00
2018-03-06T01:31:59.234Z,3.00
2018-03-06T01:34:27.546Z,2.90
2018-03-06T01:36:55.093Z,2.90
2018-03-06T01:39:22.974Z,2.90
2018-03-06T01:41:50.598Z,2.90
2018-03-06T01:44:18.135Z,2.80
2018-03-06T01:46:45.686Z,2.80
2018-03-06T01:49:13.226Z,2.80
2018-03-06T01:51:53.020Z,2.80
2018-03-06T01:54:20.566Z,2.80
2018-03-06T01:56:48.104Z,2.80
2018-03-06T01:59:15.681Z,2.80
2018-03-06T02:01:43.272Z,2.80
2018-03-06T02:04:10.861Z,2.90
2018-03-06T02:06:38.413Z,2.90
2018-03-06T02:09:05.948Z,2.90
2018-03-06T02:11:33.502Z,2.90
2018-03-06T02:14:01.044Z,3.00
2018-03-06T02:16:29.688Z,3.10
2018-03-06T02:18:57.235Z,3.10
2018-03-06T02:21:24.848Z,3.10
2018-03-06T02:23:52.388Z,3.20
2018-03-06T02:26:19.930Z,3.20
2018-03-06T02:28:47.481Z,3.20
2018-03-06T02:31:15.019Z,3.20
2018-03-06T02:33:42.632Z,3.10
2018-03-06T02:36:10.186Z,3.10
2018-03-06T02:38:37.709Z,3.00
2018-03-06T02:41:05.610Z,3.00
2018-03-06T02:43:33.161Z,2.90
2018-03-06T02:46:10.366Z,2.80
2018-03-06T02:48:37.905Z,2.80
2018-03-06T02:51:05.435Z,2.80
2018-03-06T02:53:32.985Z,2.80
2018-03-06T02:56:00.537Z,2.80
2018-03-06T02:58:28.394Z,2.80
2018-03-06T03:00:56.700Z,2.80
2018-03-06T03:03:24.247Z,2.90
2018-03-06T03:05:51.787Z,2.90
2018-03-06T03:08:20.107Z,2.90
2018-03-06T03:10:47.659Z,2.90
2018-03-06T03:13:15.274Z,2.90
2018-03-06T03:15:42.817Z,2.90
2018-03-06T03:18:10.349Z,2.90
2018-03-06T03:20:37.917Z,2.90
2018-03-06T03:23:05.471Z,2.80
2018-03-06T03:25:33.788Z,2.70
2018-03-06T03:28:01.320Z,2.70
2018-03-06T03:30:29.709Z,2.70
2018-03-06T03:32:58.023Z,2.60
2018-03-06T03:35:25.894Z,2.60
2018-03-06T03:37:53.435Z,2.60
2018-03-06T03:40:20.986Z,2.60
2018-03-06T03:42:49.292Z,2.50
2018-03-06T03:45:16.852Z,2.50
2018-03-06T03:47:44.425Z,2.50
2018-03-06T03:50:11.979Z,2.50
2018-03-06T03:52:40.382Z,2.50
2018-03-06T03:55:07.925Z,2.50
2018-03-06T03:57:36.238Z,2.40
2018-03-06T04:00:03.811Z,2.40
2018-03-06T04:02:31.385Z,2.40
2018-03-06T04:04:58.934Z,2.30
2018-03-06T04:07:26.484Z,2.30
2018-03-06T04:09:54.023Z,2.20
2018-03-06T04:12:22.464Z,2.10
2018-03-06T04:14:50.022Z,2.10
2018-03-06T04:17:17.624Z,2.00
2018-03-06T04:19:45.116Z,2.00
2018-03-06T04:22:13.427Z,1.80
2018-03-06T04:24:41.385Z,1.80
2018-03-06T04:27:09.029Z,1.70
2018-03-06T04:29:37.331Z,1.60
2018-03-06T04:32:04.884Z,1.60
2018-03-06T04:34:33.188Z,1.60
2018-03-06T04:37:00.773Z,1.60
2018-03-06T04:39:28.321Z,1.60
2018-03-06T04:41:55.956Z,1.60
2018-03-06T04:44:24.262Z,1.60
2018-03-06T04:46:51.811Z,1.60
2018-03-06T04:49:20.189Z,1.70
2018-03-06T04:51:48.494Z,1.70
2018-03-06T04:54:16.031Z,1.70
2018-03-06T04:56:43.564Z,1.70
2018-03-06T04:59:11.139Z,1.70
2018-03-06T05:01:38.725Z,1.70
2018-03-06T05:04:06.280Z,1.60
2018-03-06T05:06:33.844Z,1.60
2018-03-06T05:09:01.396Z,1.60
2018-03-06T05:11:28.960Z,1.60
2018-03-06T05:13:56.516Z,1.50
2018-03-06T05:16:24.844Z,1.50
2018-03-06T05:18:53.164Z,1.50
2018-03-06T05:21:20.706Z,1.50
2018-03-06T05:23:49.028Z,1.50
2018-03-06T05:26:17.372Z,1.50
2018-03-06T05:28:45.673Z,1.50
2018-03-06T05:31:13.218Z,1.50
2018-03-06T05:33:40.775Z,1.50
2018-03-06T05:36:09.089Z,1.50
2018-03-06T05:38:36.660Z,1.50
2018-03-06T05:41:04.199Z,1.60
2018-03-06T05:43:31.757Z,1.50
2018-03-06T05:46:00.108Z,1.60
2018-03-06T05:48:27.667Z,1.50
2018-03-06T05:50:56.832Z,1.50
2018-03-06T05:53:24.363Z,1.50
2018-03-06T05:55:52.035Z,1.50
2018-03-06T05:58:20.352Z,1.50
2018-03-06T06:00:48.095Z,1.50
2018-03-06T06:03:15.669Z,1.50
2018-03-06T06:05:43.196Z,1.50
2018-03-06T06:08:10.734Z,1.40
2018-03-06T06:10:38.290Z,1.40
2018-03-06T06:13:05.846Z,1.40
2018-03-06T06:15:33.415Z,1.40
2018-03-06T06:18:00.946Z,1.40
2018-03-06T06:20:29.243Z,1.60
2018-03-06T06:22:56.773Z,1.50
2018-03-06T06:25:24.337Z,1.50
2018-03-06T06:27:51.908Z,1.60
2018-03-06T06:30:19.428Z,1.60
2018-03-06T06:32:47.021Z,1.70
2018-03-06T06:35:15.347Z,1.70
2018-03-06T06:37:43.657Z,1.70
2018-03-06T06:40:11.247Z,1.70
2018-03-06T06:42:38.795Z,1.80
2018-03-06T06:45:06.343Z,1.80
2018-03-06T06:47:33.888Z,1.80
2018-03-06T06:50:02.183Z,2.00
2018-03-06T06:52:29.763Z,2.00
2018-03-06T06:54:57.401Z,2.10
2018-03-06T06:57:25.713Z,2.30
2018-03-06T06:59:53.238Z,2.20
2018-03-06T07:02:20.801Z,2.30
2018-03-06T07:04:48.397Z,2.50
2018-03-06T07:07:15.932Z,2.50
2018-03-06T07:09:43.489Z,2.60
2018-03-06T07:12:11.039Z,2.60
2018-03-06T07:14:38.566Z,2.70
2018-03-06T07:17:06.204Z,2.70
2018-03-06T07:19:34.521Z,2.80
2018-03-06T07:22:02.129Z,2.80
2018-03-06T07:24:29.674Z,2.80
2018-03-06T07:26:57.229Z,2.80
2018-03-06T07:29:24.782Z,2.90
2018-03-06T07:31:52.398Z,3.00
2018-03-06T07:34:19.892Z,3.10
2018-03-06T07:36:48.191Z,3.20
2018-03-06T07:39:15.730Z,3.10
2018-03-06T07:41:44.078Z,3.30
2018-03-06T07:44:12.380Z,3.40
2018-03-06T07:46:39.910Z,3.30
2018-03-06T07:49:07.437Z,3.50
2018-03-06T07:51:35.732Z,3.50
2018-03-06T07:54:03.276Z,3.60
2018-03-06T07:56:31.586Z,3.70
2018-03-06T07:58:59.114Z,3.70
2018-03-06T08:01:26.648Z,3.70
2018-03-06T08:03:54.299Z,3.70
2018-03-06T08:06:21.850Z,3.80
2018-03-06T08:08:49.380Z,3.90
2018-03-06T08:11:16.971Z,4.00
2018-03-06T08:13:44.542Z,4.00
2018-03-06T08:16:12.070Z,4.10
2018-03-06T08:18:39.640Z,4.10
2018-03-06T08:21:07.163Z,4.20
2018-03-06T08:23:34.716Z,4.20
2018-03-06T08:26:02.310Z,4.30
2018-03-06T08:28:29.849Z,4.40
2018-03-06T08:30:57.408Z,4.50
2018-03-06T08:33:24.940Z,4.50
2018-03-06T08:35:53.266Z,4.70
2018-03-06T08:38:20.832Z,4.70
2018-03-06T08:40:48.400Z,4.80
2018-03-06T08:43:16.241Z,4.90
2018-03-06T08:45:43.781Z,4.90
2018-03-06T08:48:12.110Z,5.10
2018-03-06T08:50:39.647Z,5.00
2018-03-06T08:53:07.184Z,5.20
2018-03-06T08:55:34.754Z,5.30
2018-03-06T08:58:02.297Z,5.50
2018-03-06T09:00:29.842Z,5.60
2018-03-06T09:02:57.422Z,5.60
2018-03-06T09:05:25.040Z,5.70
2018-03-06T09:07:52.614Z,5.80
2018-03-06T09:10:20.154Z,5.70
2018-03-06T09:12:48.467Z,5.80
2018-03-06T09:15:16.073Z,5.80
2018-03-06T09:17:43.623Z,5.90
2018-03-06T09:20:11.211Z,6.00
2018-03-06T09:22:38.872Z,6.20
2018-03-06T09:25:07.186Z,6.50
2018-03-06T09:27:35.508Z,6.50
2018-03-06T09:30:03.053Z,6.50
2018-03-06T09:32:31.374Z,6.80
2018-03-06T09:34:58.916Z,6.80
2018-03-06T09:37:26.446Z,6.90
2018-03-06T09:39:54.762Z,7.10
2018-03-06T09:42:22.309Z,7.20
2018-03-06T09:44:50.637Z,7.20
2018-03-06T09:47:18.180Z,7.20
2018-03-06T09:49:45.742Z,7.20
2018-03-06T09:52:13.309Z,7.40
2018-03-06T09:54:40.883Z,7.50
2018-03-06T09:57:08.512Z,7.50
2018-03-06T09:59:36.833Z,7.50
2018-03-06T10:02:04.374Z,7.50
2018-03-06T10:04:31.929Z,7.80
2018-03-06T10:07:00.247Z,7.80
2018-03-06T10:09:27.804Z,7.80
2018-03-06T10:11:55.381Z,7.90
2018-03-06T10:14:22.946Z,8.00
2018-03-06T10:16:50.479Z,8.00
2018-03-06T10:19:18.818Z,8.20
2018-03-06T10:21:46.387Z,8.20
2018-03-06T10:24:13.933Z,8.20
2018-03-06T10:26:41.497Z,8.20
2018-03-06T10:29:09.036Z,8.30
2018-03-06T10:31:36.582Z,8.50
2018-03-06T10:34:04.987Z,8.50
2018-03-06T10:36:32.572Z,8.50
2018-03-06T10:39:00.860Z,8.70
2018-03-06T10:41:28.403Z,8.70
2018-03-06T10:43:55.957Z,8.80
2018-03-06T10:46:24.272Z,9.00
2018-03-06T10:48:51.821Z,9.00
2018-03-06T10:51:19.377Z,9.00
2018-03-06T10:53:46.904Z,9.10
2018-03-06T10:56:14.450Z,9.30
2018-03-06T10:58:42.021Z,9.50
2018-03-06T11:01:09.582Z,9.60
2018-03-06T11:03:37.110Z,9.70
2018-03-06T11:06:04.730Z,9.80
2018-03-06T11:08:32.273Z,10.10
2018-03-06T11:11:00.200Z,10.40
2018-03-06T11:13:28.517Z,10.40
2018-03-06T11:15:56.075Z,10.40
2018-03-06T11:18:23.677Z,10.60
2018-03-06T11:20:51.195Z,10.70
2018-03-06T11:23:18.820Z,10.80
2018-03-06T11:25:46.440Z,10.80
2018-03-06T11:28:14.000Z,10.90
2018-03-06T11:30:41.543Z,11.00
2018-03-06T11:33:09.850Z,10.70
2018-03-06T11:35:37.421Z,10.70
2018-03-06T11:38:04.983Z,10.70
2018-03-06T11:40:32.536Z,10.70
2018-03-06T11:43:00.086Z,11.10
2018-03-06T11:45:28.423Z,11.10
2018-03-06T11:47:56.262Z,11.10
2018-03-06T11:50:23.800Z,11.10
2018-03-06T11:52:52.115Z,11.20
2018-03-06T11:55:19.669Z,11.20
2018-03-06T11:57:47.216Z,11.20
2018-03-06T12:00:15.538Z,11.20
2018-03-06T12:02:43.078Z,11.20
2018-03-06T12:05:10.650Z,11.10
2018-03-06T12:07:38.240Z,11.10
2018-03-06T12:10:05.825Z,11.30
2018-03-06T12:12:33.390Z,11.10
2018-03-06T12:15:01.013Z,11.10
2018-03-06T12:17:28.574Z,11.10
2018-03-06T12:19:56.112Z,11.10
2018-03-06T12:22:23.696Z,11.00
2018-03-06T12:24:52.025Z,11.10
2018-03-06T12:27:19.558Z,11.00
2018-03-06T12:29:47.095Z,11.40
2018-03-06T12:32:15.421Z,11.50
2018-03-06T12:34:42.956Z,11.50
2018-03-06T12:37:11.280Z,11.60
2018-03-06T12:39:38.801Z,11.60
2018-03-06T12:42:07.087Z,11.60
2018-03-06T12:44:35.402Z,11.80
2018-03-06T12:47:02.942Z,11.70
2018-03-06T12:49:31.272Z,12.10
2018-03-06T12:51:58.819Z,12.10
2018-03-06T12:54:26.367Z,12.10
2018-03-06T12:56:53.919Z,12.10
2018-03-06T12:59:21.458Z,12.00
2018-03-06T13:01:49.030Z,12.00
2018-03-06T13:04:17.367Z,11.90
2018-03-06T13:06:44.918Z,11.80
2018-03-06T13:09:12.493Z,11.70
2018-03-06T13:11:40.026Z,11.40
2018-03-06T13:14:08.342Z,11.30
2018-03-06T13:16:35.888Z,11.30
2018-03-06T13:19:03.439Z,11.40
2018-03-06T13:21:31.747Z,11.60
2018-03-06T13:23:59.295Z,11.60
2018-03-06T13:26:27.970Z,11.70
2018-03-06T13:28:56.287Z,11.80
2018-03-06T13:31:23.944Z,11.80
2018-03-06T13:33:51.482Z,12.00
2018-03-06T13:36:19.797Z,12.30
2018-03-06T13:38:47.415Z,12.20
2018-03-06T13:41:14.938Z,12.30
2018-03-06T13:43:42.485Z,12.30
2018-03-06T13:46:10.039Z,12.50
2018-03-06T13:48:38.347Z,12.70
2018-03-06T13:51:05.918Z,12.70
2018-03-06T13:53:33.465Z,12.80
2018-03-06T13:56:00.999Z,12.70
2018-03-06T13:58:28.544Z,12.70
2018-03-06T14:00:56.104Z,12.40
2018-03-06T14:03:23.678Z,12.50
2018-03-06T14:05:51.231Z,12.30
2018-03-06T14:08:18.813Z,12.30
2018-03-06T14:10:46.414Z,12.30
2018-03-06T14:13:13.922Z,12.40
2018-03-06T14:15:41.545Z,12.40
2018-03-06T14:18:09.940Z,12.20
2018-03-06T14:20:37.493Z,12.20
2018-03-06T14:23:05.788Z,12.10
2018-03-06T14:25:33.341Z,12.00
2018-03-06T14:28:01.673Z,12.00
2018-03-06T14:30:29.984Z,11.80
2018-03-06T14:32:57.535Z,11.80
2018-03-06T14:35:25.083Z,11.70
2018-03-06T14:37:52.617Z,11.70
2018-03-06T14:40:20.163Z,11.80
2018-03-06T14:42:48.510Z,11.90
2018-03-06T14:45:16.915Z,11.90
2018-03-06T14:47:44.573Z,11.70
2018-03-06T14:50:12.113Z,11.70
2018-03-06T14:52:39.672Z,11.70
2018-03-06T14:55:07.227Z,11.60
2018-03-06T14:57:34.855Z,11.60
2018-03-06T15:00:03.208Z,11.50
2018-03-06T15:02:30.760Z,11.50
2018-03-06T15:04:58.364Z,11.40
2018-03-06T15:07:25.908Z,11.40
2018-03-06T15:09:53.477Z,11.30
2018-03-06T15:12:21.030Z,11.30
2018-03-06T15:14:48.852Z,11.20
2018-03-06T15:17:17.178Z,11.20
2018-03-06T15:19:44.730Z,11.20
2018-03-06T15:22:12.276Z,11.00
2018-03-06T15:24:39.839Z,11.00
2018-03-06T15:27:07.409Z,11.00
2018-03-06T15:29:34.974Z,10.90
2018-03-06T15:32:02.562Z,10.80
2018-03-06T15:34:30.077Z,10.60
2018-03-06T15:36:58.398Z,10.50
2018-03-06T15:39:25.940Z,10.50
2018-03-06T15:41:53.711Z,10.40
2018-03-06T15:44:21.256Z,10.30
2018-03-06T15:46:49.564Z,9.90
2018-03-06T15:49:17.113Z,9.90
2018-03-06T15:51:45.411Z,9.80
2018-03-06T15:54:12.972Z,9.80
2018-03-06T15:56:40.519Z,9.80
2018-03-06T15:59:08.830Z,9.80
2018-03-06T16:01:36.368Z,9.80
2018-03-06T16:04:04.675Z,9.60
2018-03-06T16:06:32.253Z,9.60
2018-03-06T16:08:59.778Z,9.50
2018-03-06T16:11:28.107Z,9.40
2018-03-06T16:13:55.664Z,9.40
2018-03-06T16:16:23.202Z,9.30
2018-03-06T16:18:51.550Z,9.20
2018-03-06T16:21:19.089Z,9.30
2018-03-06T16:23:46.639Z,9.20
2018-03-06T16:26:14.183Z,9.20
2018-03-06T16:28:42.501Z,9.20
2018-03-06T16:31:10.158Z,9.10
2018-03-06T16:33:37.700Z,9.10
2018-03-06T16:36:06.041Z,9.10
2018-03-06T16:38:33.587Z,9.10
2018-03-06T16:41:01.136Z,9.00
2018-03-06T16:43:28.725Z,9.00
2018-03-06T16:45:56.312Z,9.00
2018-03-06T16:48:23.946Z,9.00
2018-03-06T16:50:51.472Z,8.90
2018-03-06T16:53:19.779Z,9.00
2018-03-06T16:55:47.332Z,9.00
2018-03-06T16:58:14.909Z,9.00
2018-03-06T17:00:42.442Z,9.00
2018-03-06T17:03:10.768Z,8.90
2018-03-06T17:05:38.308Z,8.90
2018-03-06T17:08:06.658Z,8.80
2018-03-06T17:10:34.194Z,8.80
2018-03-06T17:13:01.742Z,8.80
2018-03-06T17:15:29.286Z,8.80
2018-03-06T17:17:57.639Z,8.70
2018-03-06T17:20:25.217Z,8.70
2018-03-06T17:22:52.764Z,8.70
2018-03-06T17:25:20.338Z,8.70
2018-03-06T17:27:47.884Z,8.80
2018-03-06T17:30:15.462Z,8.80
2018-03-06T17:32:43.026Z,8.80
2018-03-06T17:35:10.628Z,8.70
2018-03-06T17:37:38.935Z,8.70
2018-03-06T17:40:06.486Z,8.70
2018-03-06T17:42:34.026Z,8.70
2018-03-06T17:45:02.536Z,8.60
2018-03-06T17:47:30.093Z,8.50
2018-03-06T17:49:58.408Z,8.40
2018-03-06T17:52:25.977Z,8.40
2018-03-06T17:54:53.538Z,8.40
2018-03-06T17:57:21.123Z,8.40
2018-03-06T17:59:48.668Z,8.40
2018-03-06T18:02:16.331Z,8.30
2018-03-06T18:04:43.878Z,8.30
2018-03-06T18:07:12.247Z,8.30
2018-03-06T18:09:39.891Z,8.30
2018-03-06T18:12:07.448Z,8.30
2018-03-06T18:14:35.013Z,8.30
2018-03-06T18:17:02.604Z,8.30
2018-03-06T18:19:30.243Z,8.30
2018-03-06T18:21:57.810Z,8.20
2018-03-06T18:24:26.155Z,8.20
2018-03-06T18:26:53.704Z,8.20
2018-03-06T18:29:22.037Z,8.20
2018-03-06T18:31:49.628Z,8.20
2018-03-06T18:34:17.408Z,8.20
2018-03-06T18:36:44.981Z,8.20
2018-03-06T18:39:12.537Z,8.10
2018-03-06T18:41:40.098Z,8.10
2018-03-06T18:44:07.705Z,8.10
2018-03-06T18:46:35.291Z,8.00
2018-03-06T18:49:03.001Z,8.00
2018-03-06T18:51:30.557Z,8.00
2018-03-06T18:53:58.127Z,7.90
2018-03-06T18:56:25.690Z,7.80
2018-03-06T18:58:53.322Z,7.80
2018-03-06T19:01:41.681Z,7.80
2018-03-06T19:04:21.003Z,7.80
2018-03-06T19:09:45.516Z,7.70
2018-03-06T19:12:13.104Z,7.60
2018-03-06T19:14:40.673Z,7.60
2018-03-06T19:17:08.306Z,7.50
2018-03-06T19:19:35.873Z,7.50
2018-03-06T19:22:04.134Z,7.40
2018-03-06T19:24:31.697Z,7.30
2018-03-06T19:26:59.329Z,7.20
2018-03-06T19:29:27.697Z,7.10
2018-03-06T19:31:55.363Z,7.10
2018-03-06T19:34:23.000Z,7.00
2018-03-06T19:36:50.616Z,6.90
2018-03-06T19:39:18.273Z,6.90
2018-03-06T19:41:46.637Z,6.80
2018-03-06T19:44:14.370Z,6.80
2018-03-06T19:46:41.970Z,6.80
2018-03-06T19:49:09.555Z,6.80
2018-03-06T19:51:37.165Z,6.80
2018-03-06T19:54:04.766Z,6.80
2018-03-06T19:56:32.379Z,6.80
2018-03-06T19:59:01.107Z,6.70
2018-03-06T20:01:28.803Z,6.70
2018-03-06T20:03:56.869Z,6.70
2018-03-06T20:06:24.500Z,6.70
2018-03-06T20:08:52.164Z,6.70
2018-03-06T20:11:20.215Z,6.70
2018-03-06T20:13:49.946Z,6.70
2018-03-06T20:16:17.600Z,6.70
2018-03-06T20:18:45.949Z,6.60
2018-03-06T20:21:13.580Z,6.70
2018-03-06T20:23:41.190Z,6.70
2018-03-06T20:26:08.877Z,6.70
2018-03-06T20:28:37.245Z,6.70
2018-03-06T20:31:10.461Z,6.70
2018-03-06T20:33:39.104Z,6.70
2018-03-06T20:36:06.715Z,6.60
2018-03-06T20:38:39.978Z,6.60
2018-03-06T20:41:07.590Z,6.60
2018-03-06T20:43:35.906Z,6.60
2018-03-06T20:46:09.187Z,6.60
2018-03-06T20:48:36.761Z,6.60
2018-03-06T20:51:04.338Z,6.60
2018-03-06T20:53:37.438Z,6.60
2018-03-06T20:56:05.008Z,6.60
2018-03-06T20:58:32.612Z,6.50
2018-03-06T21:01:00.960Z,6.40
2018-03-06T21:03:29.290Z,6.40
2018-03-06T21:05:57.631Z,6.40
2018-03-06T21:08:25.184Z,6.40
2018-03-06T21:10:53.550Z,6.30
2018-03-06T21:13:21.087Z,6.30
2018-03-06T21:15:49.385Z,6.30
2018-03-06T21:18:16.917Z,6.20
2018-03-06T21:20:44.463Z,6.20
2018-03-06T21:23:12.044Z,6.20
2018-03-06T21:25:39.639Z,6.10
2018-03-06T21:28:07.989Z,5.90
2018-03-06T21:30:35.547Z,5.90
2018-03-06T21:33:03.109Z,5.80
2018-03-06T21:35:30.662Z,5.80
2018-03-06T21:37:58.206Z,5.70
2018-03-06T21:40:25.792Z,5.60
2018-03-06T21:42:53.380Z,5.50
2018-03-06T21:45:20.965Z,5.50
2018-03-06T21:47:48.646Z,5.40
2018-03-06T21:50:16.960Z,5.30
2018-03-06T21:52:44.507Z,5.30
2018-03-06T21:55:12.039Z,5.30
2018-03-06T21:57:39.602Z,5.20
2018-03-06T22:00:07.159Z,5.10
2018-03-06T22:02:34.714Z,5.00
2018-03-06T22:05:02.258Z,4.90
2018-03-06T22:07:29.811Z,4.90
2018-03-06T22:09:57.372Z,4.80
2018-03-06T22:12:24.964Z,4.70
2018-03-06T22:14:53.271Z,4.70
2018-03-06T22:17:20.804Z,4.70
2018-03-06T22:19:48.363Z,4.60
2018-03-06T22:22:15.954Z,4.60
2018-03-06T22:24:43.540Z,4.60
2018-03-06T22:27:11.072Z,4.50
2018-03-06T22:29:38.619Z,4.50
2018-03-06T22:32:06.266Z,4.50
2018-03-06T22:34:34.576Z,4.30
2018-03-06T22:37:02.123Z,4.30
2018-03-06T22:39:29.665Z,4.30
2018-03-06T22:41:57.215Z,4.30
2018-03-06T22:44:24.763Z,4.20
2018-03-06T22:46:52.301Z,4.10
2018-03-06T22:49:19.885Z,4.10
2018-03-06T22:51:47.407Z,4.10
2018-03-06T22:54:15.017Z,4.00
2018-03-06T22:56:42.561Z,4.00
2018-03-06T22:59:10.171Z,3.90
2018-03-06T23:01:37.722Z,3.90
2018-03-06T23:04:05.272Z,3.90
2018-03-06T23:06:32.812Z,3.80
2018-03-06T23:09:00.348Z,3.80
2018-03-06T23:11:27.884Z,3.80
2018-03-06T23:13:55.478Z,3.70
2018-03-06T23:16:23.013Z,3.70
2018-03-06T23:18:50.592Z,3.70
2018-03-06T23:21:18.117Z,3.60
2018-03-06T23:23:45.656Z,3.60
2018-03-06T23:26:13.974Z,3.60
2018-03-06T23:28:41.508Z,3.50
2018-03-06T23:31:09.807Z,3.50
2018-03-06T23:33:37.342Z,3.50
2018-03-06T23:36:05.656Z,3.50
2018-03-06T23:38:33.227Z,3.50
2018-03-06T23:41:00.750Z,3.50
2018-03-06T23:43:29.045Z,3.30
2018-03-06T23:45:57.343Z,3.30
2018-03-06T23:48:25.054Z,3.20
2018-03-06T23:50:52.636Z,3.20
2018-03-06T23:53:20.190Z,3.10
2018-03-06T23:55:47.729Z,3.10
2018-03-06T23:58:15.274Z,3.00
